createdAt,value
2023-02-08T00:00:24.174Z,1040.3
2023-02-08T00:15:23.604Z,1040.0
2023-02-08T00:30:23.270Z,1040.0
2023-02-08T00:45:23.774Z,1040.0
2023-02-08T01:00:23.127Z,1040.0
2023-02-08T01:15:23.183Z,1040.0
2023-02-08T01:30:23.318Z,1040.0
2023-02-08T01:45:23.240Z,1040.0
2023-02-08T02:00:23.330Z,1040.0
2023-02-08T02:15:23.404Z,1039.3
2023-02-08T02:30:23.550Z,1039.0
2023-02-08T02:45:23.549Z,1039.0
2023-02-08T03:00:23.906Z,1039.0
2023-02-08T03:15:23.689Z,1039.0
2023-02-08T03:30:24.757Z,1039.0
2023-02-08T03:45:32.826Z,1039.0
2023-02-08T04:00:33.450Z,1039.0
2023-02-08T04:15:22.803Z,1039.0
2023-02-08T04:30:23.151Z,1039.0
2023-02-08T04:45:23.782Z,1039.0
2023-02-08T05:00:22.941Z,1039.0
2023-02-08T05:15:23.270Z,1039.0
2023-02-08T05:30:23.664Z,1039.0
2023-02-08T05:45:23.335Z,1039.0
2023-02-08T06:00:23.184Z,1039.0
2023-02-08T06:15:23.292Z,1039.0
2023-02-08T06:30:23.398Z,1039.0
2023-02-08T06:45:23.434Z,1039.0
2023-02-08T07:00:23.709Z,1039.0
2023-02-08T07:15:23.556Z,1039.0
2023-02-08T07:30:23.457Z,1039.0
2023-02-08T07:45:23.520Z,1039.0
2023-02-08T08:00:32.256Z,1039.3
2023-02-08T08:15:23.712Z,1039.7
2023-02-08T08:30:23.893Z,1039.0
2023-02-08T08:45:32.668Z,1039.0
2023-02-08T09:00:32.926Z,1039.0
2023-02-08T09:15:22.842Z,1039.0
2023-02-08T09:30:23.066Z,1039.0
2023-02-08T09:45:22.911Z,1039.0
2023-02-08T10:00:23.568Z,1039.0
2023-02-08T10:15:23.703Z,1039.0
2023-02-08T10:30:23.821Z,1038.0
2023-02-08T10:45:24.946Z,1038.5
2023-02-08T11:00:23.921Z,1038.0
2023-02-08T11:15:23.506Z,1038.0
2023-02-08T11:30:23.701Z,1038.0
2023-02-08T11:45:23.626Z,1037.7
2023-02-08T12:00:23.423Z,1037.0
2023-02-08T12:15:23.890Z,1037.0
2023-02-08T12:30:23.559Z,1037.0
2023-02-08T12:45:23.770Z,1037.0
2023-02-08T13:00:23.536Z,1037.0
2023-02-08T13:15:30.557Z,1036.3
2023-02-08T13:15:34.279Z,1036.3
2023-02-08T13:15:42.507Z,1036.3
2023-02-08T13:30:23.848Z,1036.0
2023-02-08T13:45:24.085Z,1036.0
2023-02-08T14:00:23.901Z,1036.0
2023-02-08T14:15:24.073Z,1036.0
2023-02-08T14:30:23.974Z,1036.0
2023-02-08T14:45:23.925Z,1036.0
2023-02-08T15:00:24.213Z,1036.0
2023-02-08T15:15:24.201Z,1036.0
2023-02-08T15:30:24.224Z,1036.0
2023-02-08T15:45:24.751Z,1036.0
2023-02-08T16:00:33.606Z,1036.0
2023-02-08T16:15:23.619Z,1036.0
2023-02-08T16:30:23.583Z,1036.0
2023-02-08T16:45:23.850Z,1036.7
2023-02-08T17:00:24.875Z,1037.0
2023-02-08T17:15:24.193Z,1037.0
2023-02-08T17:30:24.102Z,1037.0
2023-02-08T17:45:23.850Z,1037.0
2023-02-08T18:00:23.869Z,1037.0
2023-02-08T18:15:23.990Z,1037.0
2023-02-08T18:30:24.593Z,1037.0
2023-02-08T18:45:24.286Z,1037.0
2023-02-08T19:00:25.209Z,1037.0
2023-02-08T19:15:24.231Z,1037.0
2023-02-08T19:30:24.414Z,1037.0
2023-02-08T19:45:24.328Z,1037.0
2023-02-08T20:00:24.530Z,1037.0
2023-02-08T20:15:24.308Z,1037.0
2023-02-08T20:30:24.907Z,1037.0
2023-02-08T20:45:32.944Z,1037.0
2023-02-08T21:00:40.363Z,1037.0
2023-02-08T21:00:42.678Z,1037.0
2023-02-08T21:00:45.582Z,1037.0
2023-02-08T21:15:22.999Z,1037.0
2023-02-08T21:30:23.476Z,1037.0
2023-02-08T21:45:23.314Z,1037.0
2023-02-08T22:00:23.320Z,1036.3
2023-02-08T22:15:23.152Z,1036.0
2023-02-08T22:30:26.147Z,1036.5
2023-02-08T22:45:23.265Z,1036.7
2023-02-08T23:15:23.008Z,1036.0
2023-02-08T23:30:22.891Z,1036.0
2023-02-08T23:45:22.879Z,1036.0
